Flight Track Log - Related Links

Times and Time Zones

All times are in EDT time to prevent confusion due to time zone crossing. See the EGF4269 flight status page for this flight to view local times or setup timezone preferences in your user account.

Time Position Orientation Groundspeed Altitude Reporting Facility
EDT Latitude Longitude Course Direction KTS MPH feet Rate Location/Type
Sun 10:34:21 PM 41.9833 -87.8500 77° East 170 196 2,600  Level Chicago TRACON
Sun 10:36:00 PM 42.0361 -87.5197 83° East  Level FlightAware Approximate
Sun 10:36:06 PM 41.9917 -87.7003 86° East 237 273 6,300  Level Chicago Center
Sun 10:37:00 PM 42.0481 -87.3876 83° East  Level FlightAware Approximate
Sun 10:37:07 PM 42.0069 -87.5953 79° East 280 322 9,000  Level Chicago Center
Sun 10:38:00 PM 42.0669 -87.2571 78° East  Level FlightAware Approximate
Sun 10:38:09 PM 42.0300 -87.4900 74° East 291 335 11,300  Level Chicago Center
Sun 10:39:00 PM 42.0872 -87.1268 77° East  Level FlightAware Approximate
Sun 10:39:10 PM 42.0539 -87.3708 75° East 330 380 12,100  Level Chicago Center
Sun 10:40:11 PM 42.0806 -87.2339 75° East 381 438 12,800 1,033 Climbing Chicago Center
Sun 10:41:12 PM 42.1069 -87.0931 76° East 390 449 14,200 1,230 Climbing Chicago Center
Sun 10:42:13 PM 42.1208 -86.9506 82° East 388 447 15,300 1,033 Climbing Chicago Center
Sun 10:43:14 PM 42.1239 -86.8003 88° East 397 457 16,300 836 Climbing Chicago Center
Sun 10:44:15 PM 42.1281 -86.6444 88° East 411 473 17,000 -148 Climbing Chicago Center
Sun 10:45:16 PM 42.1333 -86.4903 87° East 413 475 16,000 -1,918 Descending Chicago Center
Sun 10:46:17 PM 42.1383 -86.3156 88° East 392 451 13,100 -2,656 Descending Chicago Center
Sun 10:47:18 PM 42.1431 -86.1775 87° East 372 428 10,600 -1,525 Descending Chicago Center
Sun 10:48:19 PM 42.1556 -86.0586 82° East 321 369 10,000 -1,623 Descending Chicago Center
Sun 10:49:20 PM 42.1819 -85.9647 69° East 276 318 7,300 -2,803 Descending Chicago Center
Sun 10:50:21 PM 42.2106 -85.8725 67° East 268 308 4,300 -2,331 Descending Chicago Center
Sun 10:51:21 PM 42.2447 -85.7892 61° Northeast 260 299 2,600 -893 Descending Chicago Center
Sun 10:52:22 PM 42.2714 -85.7164 64° Northeast 230 265 2,500 -49 Descending Chicago Center
Sun 10:53:23 PM 42.2886 -85.6417 73° East 200 230 2,500  Level Chicago Center

Login

Don't have an account? Register now (free) for customized features, flight alerts, and more!